WXM80 ListenWXM80 Stop

You find our weather info also at:

UK Metoffice

WeatherCloud

Weather Underground

Northeastern Weather Network

AWEKAS

Citizen Weather Observer Program (CWOP)

HAMweather, WeatherForYou, PWS Weather


Weather Underground History page Text

Daily Summary for August 21, 2017 Units:  Both    English   Metric
« Previous Day
Next Day »
Daily Weekly Monthly Yearly Custom
  High: Low: Average:
Temperature: 91.7 °F /  33.2 °C 64.4 °F /  18 °C 76.2 °F /  24.6 °C
Dew Point: 72.7 °F /  22.6 °C 61.5 °F /  16.4 °C 67.2 °F /  19.6 °C
Humidity: 94 % 49 % 76 %
Wind Speed: 4.8 mph /  7.7 km/h - 1 mph /  1.6 km/h
Wind Gust: 8.1 mph /  13 km/h - -
Wind:- - SW
Pressure: 30.15 in /  1020.9 hPa 30.03 in /  1016.8 hPa -
Precipitation: 0.00 in /  0 mm    
Historical Graphs
 
 
Tabular Data for August 21, 2017
Time Temperature Dew Point Pressure Wind Wind Speed Wind Gust Humidity Rainfall Rate (Hourly)
00:00 69.3 °F /  20.7 °C 63.2 °F /  17.3 °C 30.10 in /  1019.2 hPa West 1.1 mph /  1.8 km/h 3.5 mph /  5.6 km/h 81 % 0.00 in /  0 mm
00:01 69.2 °F /  20.7 °C 63.1 °F /  17.3 °C 30.10 in /  1019.2 hPa West 0.2 mph /  0.3 km/h 3.5 mph /  5.6 km/h 81 % 0.00 in /  0 mm
00:06 69.2 °F /  20.7 °C 63.5 °F /  17.5 °C 30.10 in /  1019.2 hPa SW 0.8 mph /  1.3 km/h 2.0 mph /  3.2 km/h 82 % 0.00 in /  0 mm
00:11 69.1 °F /  20.6 °C 63.4 °F /  17.4 °C 30.10 in /  1019.2 hPa WSW 0.2 mph /  0.3 km/h 2.3 mph /  3.7 km/h 82 % 0.00 in /  0 mm
00:17 69.2 °F /  20.7 °C 63.5 °F /  17.5 °C 30.10 in /  1019.2 hPa WSW 1.1 mph /  1.8 km/h 3.5 mph /  5.6 km/h 82 % 0.00 in /  0 mm
00:22 69.2 °F /  20.7 °C 63.5 °F /  17.5 °C 30.10 in /  1019.2 hPa Calm   3.5 mph /  5.6 km/h 82 % 0.00 in /  0 mm
00:27 69.3 °F /  20.7 °C 63.9 °F /  17.7 °C 30.10 in /  1019.2 hPa Calm   1.2 mph /  1.9 km/h 83 % 0.00 in /  0 mm
00:32 69.3 °F /  20.7 °C 63.6 °F /  17.6 °C 30.10 in /  1019.2 hPa Calm     82 % 0.00 in /  0 mm
00:37 69.3 °F /  20.7 °C 63.6 °F /  17.6 °C 30.10 in /  1019.2 hPa Calm     82 % 0.00 in /  0 mm
00:42 69.3 °F /  20.7 °C 63.6 °F /  17.6 °C 30.10 in /  1019.2 hPa Calm     82 % 0.00 in /  0 mm
00:47 69.2 °F /  20.7 °C 63.5 °F /  17.5 °C 30.10 in /  1019.2 hPa Calm     82 % 0.00 in /  0 mm
00:52 69.1 °F /  20.6 °C 63.4 °F /  17.4 °C 30.11 in /  1019.5 hPa Calm     82 % 0.00 in /  0 mm
00:57 69.0 °F /  20.6 °C 63.3 °F /  17.4 °C 30.11 in /  1019.5 hPa Calm     82 % 0.00 in /  0 mm
01:02 68.8 °F /  20.4 °C 63.1 °F /  17.3 °C 30.10 in /  1019.2 hPa Calm     82 % 0.00 in /  0 mm
01:07 68.7 °F /  20.4 °C 63.0 °F /  17.2 °C 30.10 in /  1019.2 hPa Calm     82 % 0.00 in /  0 mm
01:12 68.6 °F /  20.3 °C 63.2 °F /  17.3 °C 30.10 in /  1019.2 hPa Calm     83 % 0.00 in /  0 mm
01:17 68.5 °F /  20.3 °C 63.5 °F /  17.5 °C 30.11 in /  1019.5 hPa WSW 0.7 mph /  1.1 km/h 2.3 mph /  3.7 km/h 84 % 0.00 in /  0 mm
01:22 68.3 °F /  20.2 °C 63.3 °F /  17.4 °C 30.10 in /  1019.2 hPa WSW 0.5 mph /  0.8 km/h 2.0 mph /  3.2 km/h 84 % 0.00 in /  0 mm
01:27 68.2 °F /  20.1 °C 63.2 °F /  17.3 °C 30.10 in /  1019.2 hPa Calm     84 % 0.00 in /  0 mm
01:32 68.1 °F /  20.1 °C 63.1 °F /  17.3 °C 30.10 in /  1019.2 hPa Calm     84 % 0.00 in /  0 mm
01:37 68.0 °F /  20 °C 63.3 °F /  17.4 °C 30.11 in /  1019.5 hPa Calm     85 % 0.00 in /  0 mm
01:42 67.9 °F /  19.9 °C 63.2 °F /  17.3 °C 30.11 in /  1019.5 hPa Calm     85 % 0.00 in /  0 mm
01:47 67.9 °F /  19.9 °C 63.2 °F /  17.3 °C 30.10 in /  1019.2 hPa Calm   1.2 mph /  1.9 km/h 85 % 0.00 in /  0 mm
01:48 67.9 °F /  19.9 °C 63.2 °F /  17.3 °C 30.10 in /  1019.2 hPa Calm   1.2 mph /  1.9 km/h 85 % 0.00 in /  0 mm
01:53 67.8 °F /  19.9 °C 63.1 °F /  17.3 °C 30.10 in /  1019.2 hPa Calm   1.2 mph /  1.9 km/h 85 % 0.00 in /  0 mm
01:58 67.7 °F /  19.8 °C 63.0 °F /  17.2 °C 30.10 in /  1019.2 hPa Calm     85 % 0.00 in /  0 mm
02:03 67.7 °F /  19.8 °C 63.0 °F /  17.2 °C 30.10 in /  1019.2 hPa Calm     85 % 0.00 in /  0 mm
02:08 67.6 °F /  19.8 °C 62.9 °F /  17.2 °C 30.10 in /  1019.2 hPa Calm     85 % 0.00 in /  0 mm
02:13 67.5 °F /  19.7 °C 62.8 °F /  17.1 °C 30.11 in /  1019.5 hPa Calm     85 % 0.00 in /  0 mm
02:18 67.4 °F /  19.7 °C 62.7 °F /  17.1 °C 30.11 in /  1019.5 hPa Calm     85 % 0.00 in /  0 mm
02:23 67.3 °F /  19.6 °C 63.0 °F /  17.2 °C 30.11 in /  1019.5 hPa Calm   1.2 mph /  1.9 km/h 86 % 0.00 in /  0 mm
02:28 67.2 °F /  19.6 °C 62.9 °F /  17.2 °C 30.11 in /  1019.5 hPa Calm   1.2 mph /  1.9 km/h 86 % 0.00 in /  0 mm
02:33 67.2 °F /  19.6 °C 63.2 °F /  17.3 °C 30.11 in /  1019.5 hPa Calm     87 % 0.00 in /  0 mm
02:38 67.1 °F /  19.5 °C 63.1 °F /  17.3 °C 30.11 in /  1019.5 hPa Calm     87 % 0.00 in /  0 mm
02:43 67.0 °F /  19.4 °C 63.0 °F /  17.2 °C 30.11 in /  1019.5 hPa Calm     87 % 0.00 in /  0 mm
02:48 67.0 °F /  19.4 °C 63.0 °F /  17.2 °C 30.11 in /  1019.5 hPa Calm     87 % 0.00 in /  0 mm
02:53 66.9 °F /  19.4 °C 62.9 °F /  17.2 °C 30.10 in /  1019.2 hPa Calm     87 % 0.00 in /  0 mm
02:58 66.8 °F /  19.3 °C 62.8 °F /  17.1 °C 30.10 in /  1019.2 hPa Calm     87 % 0.00 in /  0 mm
03:03 66.8 °F /  19.3 °C 62.8 °F /  17.1 °C 30.10 in /  1019.2 hPa Calm   1.2 mph /  1.9 km/h 87 % 0.00 in /  0 mm
03:08 66.7 °F /  19.3 °C 62.7 °F /  17.1 °C 30.10 in /  1019.2 hPa Calm     87 % 0.00 in /  0 mm
03:13 66.6 °F /  19.2 °C 62.6 °F /  17 °C 30.10 in /  1019.2 hPa WSW 0.1 mph /  0.2 km/h 1.2 mph /  1.9 km/h 87 % 0.00 in /  0 mm
03:18 66.5 °F /  19.2 °C 62.5 °F /  16.9 °C 30.11 in /  1019.5 hPa Calm     87 % 0.00 in /  0 mm
03:23 66.5 °F /  19.2 °C 62.5 °F /  16.9 °C 30.10 in /  1019.2 hPa Calm     87 % 0.00 in /  0 mm
03:28 66.3 °F /  19.1 °C 62.3 °F /  16.8 °C 30.10 in /  1019.2 hPa Calm     87 % 0.00 in /  0 mm
03:33 66.3 °F /  19.1 °C 62.6 °F /  17 °C 30.10 in /  1019.2 hPa Calm     88 % 0.00 in /  0 mm
03:38 66.2 °F /  19 °C 62.5 °F /  16.9 °C 30.10 in /  1019.2 hPa Calm     88 % 0.00 in /  0 mm
03:43 66.1 °F /  18.9 °C 62.4 °F /  16.9 °C 30.10 in /  1019.2 hPa Calm     88 % 0.00 in /  0 mm
03:48 66.0 °F /  18.9 °C 62.3 °F /  16.8 °C 30.10 in /  1019.2 hPa Calm     88 % 0.00 in /  0 mm
03:53 65.9 °F /  18.8 °C 62.6 °F /  17 °C 30.10 in /  1019.2 hPa Calm     89 % 0.00 in /  0 mm
03:59 65.9 °F /  18.8 °C 62.6 °F /  17 °C 30.10 in /  1019.2 hPa WSW 0.2 mph /  0.3 km/h 1.2 mph /  1.9 km/h 89 % 0.00 in /  0 mm
04:04 65.9 °F /  18.8 °C 62.6 °F /  17 °C 30.10 in /  1019.2 hPa Calm     89 % 0.00 in /  0 mm
04:09 65.8 °F /  18.8 °C 62.5 °F /  16.9 °C 30.10 in /  1019.2 hPa Calm     89 % 0.00 in /  0 mm
04:14 65.8 °F /  18.8 °C 62.5 °F /  16.9 °C 30.10 in /  1019.2 hPa Calm     89 % 0.00 in /  0 mm
04:19 65.8 °F /  18.8 °C 62.8 °F /  17.1 °C 30.10 in /  1019.2 hPa Calm     90 % 0.00 in /  0 mm
04:24 65.7 °F /  18.7 °C 62.7 °F /  17.1 °C 30.11 in /  1019.5 hPa Calm     90 % 0.00 in /  0 mm
04:29 65.7 °F /  18.7 °C 62.4 °F /  16.9 °C 30.11 in /  1019.5 hPa Calm     89 % 0.00 in /  0 mm
04:34 65.7 °F /  18.7 °C 62.4 °F /  16.9 °C 30.11 in /  1019.5 hPa Calm     89 % 0.00 in /  0 mm
04:39 65.6 °F /  18.7 °C 62.6 °F /  17 °C 30.12 in /  1019.9 hPa Calm     90 % 0.00 in /  0 mm
04:44 65.6 °F /  18.7 °C 62.6 °F /  17 °C 30.12 in /  1019.9 hPa Calm     90 % 0.00 in /  0 mm
04:49 65.5 °F /  18.6 °C 62.5 °F /  16.9 °C 30.12 in /  1019.9 hPa Calm     90 % 0.00 in /  0 mm
04:55 65.5 °F /  18.6 °C 62.5 °F /  16.9 °C 30.12 in /  1019.9 hPa Calm     90 % 0.00 in /  0 mm
05:00 65.4 °F /  18.6 °C 62.4 °F /  16.9 °C 30.11 in /  1019.5 hPa Calm     90 % 0.00 in /  0 mm
05:05 65.4 °F /  18.6 °C 62.4 °F /  16.9 °C 30.12 in /  1019.9 hPa Calm     90 % 0.00 in /  0 mm
05:10 65.3 °F /  18.5 °C 62.3 °F /  16.8 °C 30.12 in /  1019.9 hPa Calm     90 % 0.00 in /  0 mm
05:15 65.3 °F /  18.5 °C 62.3 °F /  16.8 °C 30.12 in /  1019.9 hPa Calm     90 % 0.00 in /  0 mm
05:20 65.2 °F /  18.4 °C 62.2 °F /  16.8 °C 30.12 in /  1019.9 hPa Calm     90 % 0.00 in /  0 mm
05:25 65.2 °F /  18.4 °C 62.2 °F /  16.8 °C 30.12 in /  1019.9 hPa Calm     90 % 0.00 in /  0 mm
05:30 65.1 °F /  18.4 °C 62.1 °F /  16.7 °C 30.12 in /  1019.9 hPa Calm     90 % 0.00 in /  0 mm
05:35 65.0 °F /  18.3 °C 62.0 °F /  16.7 °C 30.12 in /  1019.9 hPa Calm     90 % 0.00 in /  0 mm
05:40 65.0 °F /  18.3 °C 62.0 °F /  16.7 °C 30.13 in /  1020.2 hPa Calm     90 % 0.00 in /  0 mm
05:45 64.9 °F /  18.3 °C 61.9 °F /  16.6 °C 30.13 in /  1020.2 hPa Calm   1.2 mph /  1.9 km/h 90 % 0.00 in /  0 mm
05:50 64.9 °F /  18.3 °C 61.9 °F /  16.6 °C 30.13 in /  1020.2 hPa Calm     90 % 0.00 in /  0 mm
05:55 64.8 °F /  18.2 °C 62.1 °F /  16.7 °C 30.13 in /  1020.2 hPa Calm     91 % 0.00 in /  0 mm
06:00 64.8 °F /  18.2 °C 61.8 °F /  16.6 °C 30.13 in /  1020.2 hPa Calm     90 % 0.00 in /  0 mm
06:05 64.7 °F /  18.2 °C 61.7 °F /  16.5 °C 30.13 in /  1020.2 hPa Calm     90 % 0.00 in /  0 mm
06:10 64.6 °F /  18.1 °C 61.6 °F /  16.4 °C 30.13 in /  1020.2 hPa Calm     90 % 0.00 in /  0 mm
06:15 64.6 °F /  18.1 °C 61.6 °F /  16.4 °C 30.13 in /  1020.2 hPa Calm     90 % 0.00 in /  0 mm
06:20 64.5 °F /  18.1 °C 61.5 °F /  16.4 °C 30.13 in /  1020.2 hPa Calm     90 % 0.00 in /  0 mm
06:25 64.5 °F /  18.1 °C 61.5 °F /  16.4 °C 30.13 in /  1020.2 hPa Calm     90 % 0.00 in /  0 mm
06:30 64.4 °F /  18 °C 61.7 °F /  16.5 °C 30.13 in /  1020.2 hPa Calm     91 % 0.00 in /  0 mm
06:35 64.4 °F /  18 °C 61.7 °F /  16.5 °C 30.13 in /  1020.2 hPa Calm   1.2 mph /  1.9 km/h 91 % 0.00 in /  0 mm
06:40 64.4 °F /  18 °C 62.0 °F /  16.7 °C 30.14 in /  1020.5 hPa WSW 1.0 mph /  1.6 km/h 3.5 mph /  5.6 km/h 92 % 0.00 in /  0 mm
06:45 64.4 °F /  18 °C 62.0 °F /  16.7 °C 30.14 in /  1020.5 hPa WSW 1.2 mph /  1.9 km/h 2.3 mph /  3.7 km/h 92 % 0.00 in /  0 mm
06:47 64.5 °F /  18.1 °C 62.4 °F /  16.9 °C 30.13 in /  1020.2 hPa WSW 0.3 mph /  0.5 km/h 1.2 mph /  1.9 km/h 93 % 0.00 in /  0 mm
06:52 64.6 °F /  18.1 °C 62.5 °F /  16.9 °C 30.14 in /  1020.5 hPa Calm     93 % 0.00 in /  0 mm
06:57 64.7 °F /  18.2 °C 62.6 °F /  17 °C 30.13 in /  1020.2 hPa Calm     93 % 0.00 in /  0 mm
07:02 64.9 °F /  18.3 °C 62.8 °F /  17.1 °C 30.13 in /  1020.2 hPa WSW 0.2 mph /  0.3 km/h 1.2 mph /  1.9 km/h 93 % 0.00 in /  0 mm
07:07 65.1 °F /  18.4 °C 63.3 °F /  17.4 °C 30.14 in /  1020.5 hPa Calm     94 % 0.00 in /  0 mm
07:12 65.3 °F /  18.5 °C 63.5 °F /  17.5 °C 30.14 in /  1020.5 hPa WSW 0.1 mph /  0.2 km/h 1.2 mph /  1.9 km/h 94 % 0.00 in /  0 mm
07:18 65.6 °F /  18.7 °C 63.8 °F /  17.7 °C 30.14 in /  1020.5 hPa WSW 0.1 mph /  0.2 km/h 1.2 mph /  1.9 km/h 94 % 0.00 in /  0 mm
07:23 65.8 °F /  18.8 °C 63.7 °F /  17.6 °C 30.14 in /  1020.5 hPa WSW 0.3 mph /  0.5 km/h 2.3 mph /  3.7 km/h 93 % 0.00 in /  0 mm
07:28 66.1 °F /  18.9 °C 64.0 °F /  17.8 °C 30.14 in /  1020.5 hPa WSW 1.2 mph /  1.9 km/h 2.3 mph /  3.7 km/h 93 % 0.00 in /  0 mm
07:33 66.3 °F /  19.1 °C 64.2 °F /  17.9 °C 30.14 in /  1020.5 hPa WSW 2.0 mph /  3.2 km/h 3.5 mph /  5.6 km/h 93 % 0.00 in /  0 mm
07:38 66.7 °F /  19.3 °C 64.6 °F /  18.1 °C 30.14 in /  1020.5 hPa SW 1.3 mph /  2.1 km/h 3.5 mph /  5.6 km/h 93 % 0.00 in /  0 mm
07:43 67.0 °F /  19.4 °C 64.6 °F /  18.1 °C 30.14 in /  1020.5 hPa SW 1.5 mph /  2.4 km/h 3.5 mph /  5.6 km/h 92 % 0.00 in /  0 mm
07:48 67.4 °F /  19.7 °C 65.0 °F /  18.3 °C 30.14 in /  1020.5 hPa SW 2.6 mph /  4.2 km/h 3.5 mph /  5.6 km/h 92 % 0.00 in /  0 mm
07:53 67.8 °F /  19.9 °C 65.4 °F /  18.6 °C 30.14 in /  1020.5 hPa SW 1.2 mph /  1.9 km/h 3.5 mph /  5.6 km/h 92 % 0.00 in /  0 mm
07:58 68.1 °F /  20.1 °C 65.4 °F /  18.6 °C 30.14 in /  1020.5 hPa SW 1.9 mph /  3.1 km/h 3.5 mph /  5.6 km/h 91 % 0.00 in /  0 mm
08:03 68.5 °F /  20.3 °C 65.8 °F /  18.8 °C 30.14 in /  1020.5 hPa SW 2.3 mph /  3.7 km/h 3.5 mph /  5.6 km/h 91 % 0.00 in /  0 mm
08:08 68.8 °F /  20.4 °C 65.7 °F /  18.7 °C 30.14 in /  1020.5 hPa SW 1.2 mph /  1.9 km/h 2.3 mph /  3.7 km/h 90 % 0.00 in /  0 mm
08:13 69.2 °F /  20.7 °C 66.1 °F /  18.9 °C 30.14 in /  1020.5 hPa SW 2.9 mph /  4.7 km/h 4.0 mph /  6.4 km/h 90 % 0.00 in /  0 mm
08:18 69.5 °F /  20.8 °C 66.1 °F /  18.9 °C 30.14 in /  1020.5 hPa SW 1.8 mph /  2.9 km/h 3.5 mph /  5.6 km/h 89 % 0.00 in /  0 mm
08:23 70.0 °F /  21.1 °C 66.3 °F /  19.1 °C 30.14 in /  1020.5 hPa WSW 2.3 mph /  3.7 km/h 5.0 mph /  8 km/h 88 % 0.00 in /  0 mm
08:28 70.5 °F /  21.4 °C 66.4 °F /  19.1 °C 30.14 in /  1020.5 hPa SW 4.6 mph /  7.4 km/h 6.0 mph /  9.7 km/h 87 % 0.00 in /  0 mm
08:33 71.0 °F /  21.7 °C 66.6 °F /  19.2 °C 30.14 in /  1020.5 hPa West 1.5 mph /  2.4 km/h 2.3 mph /  3.7 km/h 86 % 0.00 in /  0 mm
08:38 71.4 °F /  21.9 °C 67.0 °F /  19.4 °C 30.14 in /  1020.5 hPa West 4.3 mph /  6.9 km/h 6.9 mph /  11.1 km/h 86 % 0.00 in /  0 mm
08:44 71.9 °F /  22.2 °C 67.1 °F /  19.5 °C 30.15 in /  1020.9 hPa WNW 1.8 mph /  2.9 km/h 3.5 mph /  5.6 km/h 85 % 0.00 in /  0 mm
08:49 72.2 °F /  22.3 °C 67.1 °F /  19.5 °C 30.14 in /  1020.5 hPa WNW 1.8 mph /  2.9 km/h 4.6 mph /  7.4 km/h 84 % 0.00 in /  0 mm
08:54 72.7 °F /  22.6 °C 67.6 °F /  19.8 °C 30.14 in /  1020.5 hPa SW 2.7 mph /  4.3 km/h 5.0 mph /  8 km/h 84 % 0.00 in /  0 mm
08:59 73.1 °F /  22.8 °C 67.3 °F /  19.6 °C 30.14 in /  1020.5 hPa WSW 1.9 mph /  3.1 km/h 3.5 mph /  5.6 km/h 82 % 0.00 in /  0 mm
09:04 73.4 °F /  23 °C 67.6 °F /  19.8 °C 30.14 in /  1020.5 hPa WNW 3.2 mph /  5.1 km/h 4.6 mph /  7.4 km/h 82 % 0.00 in /  0 mm
09:09 73.8 °F /  23.2 °C 68.0 °F /  20 °C 30.14 in /  1020.5 hPa West 4.8 mph /  7.7 km/h 6.0 mph /  9.7 km/h 82 % 0.00 in /  0 mm
09:14 74.2 °F /  23.4 °C 68.0 °F /  20 °C 30.14 in /  1020.5 hPa West 1.9 mph /  3.1 km/h 8.0 mph /  12.9 km/h 81 % 0.00 in /  0 mm
09:19 74.5 °F /  23.6 °C 67.9 °F /  19.9 °C 30.14 in /  1020.5 hPa SW 4.5 mph /  7.2 km/h 6.0 mph /  9.7 km/h 80 % 0.00 in /  0 mm
09:24 74.8 °F /  23.8 °C 67.8 °F /  19.9 °C 30.14 in /  1020.5 hPa West 1.8 mph /  2.9 km/h 3.5 mph /  5.6 km/h 79 % 0.00 in /  0 mm
09:29 75.1 °F /  23.9 °C 67.8 °F /  19.9 °C 30.14 in /  1020.5 hPa SSW 3.5 mph /  5.6 km/h 4.6 mph /  7.4 km/h 78 % 0.00 in /  0 mm
09:34 75.4 °F /  24.1 °C 68.4 °F /  20.2 °C 30.14 in /  1020.5 hPa SW 2.0 mph /  3.2 km/h 3.5 mph /  5.6 km/h 79 % 0.00 in /  0 mm
09:39 75.8 °F /  24.3 °C 68.1 °F /  20.1 °C 30.14 in /  1020.5 hPa WNW 4.2 mph /  6.8 km/h 4.6 mph /  7.4 km/h 77 % 0.00 in /  0 mm
09:45 76.2 °F /  24.6 °C 68.5 °F /  20.3 °C 30.14 in /  1020.5 hPa SW 1.7 mph /  2.7 km/h 4.6 mph /  7.4 km/h 77 % 0.00 in /  0 mm
09:50 76.6 °F /  24.8 °C 68.8 °F /  20.4 °C 30.13 in /  1020.2 hPa Calm   1.2 mph /  1.9 km/h 77 % 0.00 in /  0 mm
09:55 77.3 °F /  25.2 °C 69.5 °F /  20.8 °C 30.13 in /  1020.2 hPa West 1.9 mph /  3.1 km/h 5.8 mph /  9.3 km/h 77 % 0.00 in /  0 mm
10:00 78.0 °F /  25.6 °C 69.4 °F /  20.8 °C 30.13 in /  1020.2 hPa West 1.5 mph /  2.4 km/h 3.5 mph /  5.6 km/h 75 % 0.00 in /  0 mm
10:05 78.7 °F /  25.9 °C 68.5 °F /  20.3 °C 30.13 in /  1020.2 hPa WNW 3.1 mph /  5 km/h 6.9 mph /  11.1 km/h 71 % 0.00 in /  0 mm
10:10 79.4 °F /  26.3 °C 69.2 °F /  20.7 °C 30.13 in /  1020.2 hPa NW 2.3 mph /  3.7 km/h 6.0 mph /  9.7 km/h 71 % 0.00 in /  0 mm
10:15 79.8 °F /  26.6 °C 68.7 °F /  20.4 °C 30.13 in /  1020.2 hPa SW 3.1 mph /  5 km/h 4.6 mph /  7.4 km/h 69 % 0.00 in /  0 mm
10:20 80.2 °F /  26.8 °C 69.1 °F /  20.6 °C 30.13 in /  1020.2 hPa West 0.8 mph /  1.3 km/h 2.3 mph /  3.7 km/h 69 % 0.00 in /  0 mm
10:25 80.3 °F /  26.8 °C 69.2 °F /  20.7 °C 30.13 in /  1020.2 hPa SW 3.4 mph /  5.5 km/h 5.8 mph /  9.3 km/h 69 % 0.00 in /  0 mm
10:30 80.4 °F /  26.9 °C 69.3 °F /  20.7 °C 30.13 in /  1020.2 hPa WSW 1.6 mph /  2.6 km/h 3.5 mph /  5.6 km/h 69 % 0.00 in /  0 mm
10:35 80.4 °F /  26.9 °C 68.9 °F /  20.5 °C 30.13 in /  1020.2 hPa WSW 1.6 mph /  2.6 km/h 3.5 mph /  5.6 km/h 68 % 0.00 in /  0 mm
10:40 80.4 °F /  26.9 °C 69.7 °F /  20.9 °C 30.13 in /  1020.2 hPa West 0.2 mph /  0.3 km/h 2.3 mph /  3.7 km/h 70 % 0.00 in /  0 mm
10:45 80.5 °F /  26.9 °C 69.8 °F /  21 °C 30.14 in /  1020.5 hPa West 1.1 mph /  1.8 km/h 2.3 mph /  3.7 km/h 70 % 0.00 in /  0 mm
10:50 80.7 °F /  27.1 °C 69.6 °F /  20.9 °C 30.14 in /  1020.5 hPa SW 3.3 mph /  5.3 km/h 6.9 mph /  11.1 km/h 69 % 0.00 in /  0 mm
10:55 81.1 °F /  27.3 °C 70.0 °F /  21.1 °C 30.14 in /  1020.5 hPa WNW 1.5 mph /  2.4 km/h 3.5 mph /  5.6 km/h 69 % 0.00 in /  0 mm
11:00 81.6 °F /  27.6 °C 70.4 °F /  21.3 °C 30.14 in /  1020.5 hPa SW 1.7 mph /  2.7 km/h 3.5 mph /  5.6 km/h 69 % 0.00 in /  0 mm
11:05 82.1 °F /  27.8 °C 69.6 °F /  20.9 °C 30.13 in /  1020.2 hPa SSW 2.7 mph /  4.3 km/h 5.8 mph /  9.3 km/h 66 % 0.00 in /  0 mm
11:10 82.9 °F /  28.3 °C 70.4 °F /  21.3 °C 30.14 in /  1020.5 hPa WNW 2.4 mph /  3.9 km/h 5.8 mph /  9.3 km/h 66 % 0.00 in /  0 mm
11:15 83.6 °F /  28.7 °C 70.1 °F /  21.2 °C 30.14 in /  1020.5 hPa SW 3.9 mph /  6.3 km/h 5.8 mph /  9.3 km/h 64 % 0.00 in /  0 mm
11:20 84.0 °F /  28.9 °C 70.5 °F /  21.4 °C 30.13 in /  1020.2 hPa WSW 0.4 mph /  0.6 km/h 3.5 mph /  5.6 km/h 64 % 0.00 in /  0 mm
11:25 84.3 °F /  29.1 °C 70.8 °F /  21.6 °C 30.13 in /  1020.2 hPa WSW 2.6 mph /  4.2 km/h 3.5 mph /  5.6 km/h 64 % 0.00 in /  0 mm
11:30 84.5 °F /  29.2 °C 70.5 °F /  21.4 °C 30.13 in /  1020.2 hPa West 0.7 mph /  1.1 km/h 2.3 mph /  3.7 km/h 63 % 0.00 in /  0 mm
11:36 84.9 °F /  29.4 °C 72.7 °F /  22.6 °C 30.13 in /  1020.2 hPa West 1.0 mph /  1.6 km/h 4.0 mph /  6.4 km/h 67 % 0.00 in /  0 mm
11:41 85.4 °F /  29.7 °C 71.8 °F /  22.1 °C 30.13 in /  1020.2 hPa NW 1.2 mph /  1.9 km/h 3.0 mph /  4.8 km/h 64 % 0.00 in /  0 mm
11:46 85.9 °F /  29.9 °C 70.9 °F /  21.6 °C 30.13 in /  1020.2 hPa NW 2.0 mph /  3.2 km/h 5.0 mph /  8 km/h 61 % 0.00 in /  0 mm
11:51 86.4 °F /  30.2 °C 70.9 °F /  21.6 °C 30.13 in /  1020.2 hPa NW 1.0 mph /  1.6 km/h 7.0 mph /  11.3 km/h 60 % 0.00 in /  0 mm
11:56 86.9 °F /  30.5 °C 69.8 °F /  21 °C 30.13 in /  1020.2 hPa West 3.0 mph /  4.8 km/h 6.0 mph /  9.7 km/h 57 % 0.00 in /  0 mm
12:01 87.3 °F /  30.7 °C 70.2 °F /  21.2 °C 30.13 in /  1020.2 hPa West 3.9 mph /  6.3 km/h 7.0 mph /  11.3 km/h 57 % 0.00 in /  0 mm
12:06 87.8 °F /  31 °C 71.2 °F /  21.8 °C 30.12 in /  1019.9 hPa WSW 2.3 mph /  3.7 km/h 4.6 mph /  7.4 km/h 58 % 0.00 in /  0 mm
12:11 88.2 °F /  31.2 °C 70.5 °F /  21.4 °C 30.12 in /  1019.9 hPa WNW 0.6 mph /  1 km/h 5.8 mph /  9.3 km/h 56 % 0.00 in /  0 mm
12:16 88.5 °F /  31.4 °C 70.3 °F /  21.3 °C 30.12 in /  1019.9 hPa West 1.1 mph /  1.8 km/h 3.5 mph /  5.6 km/h 55 % 0.00 in /  0 mm
12:21 88.9 °F /  31.6 °C 71.2 °F /  21.8 °C 30.12 in /  1019.9 hPa WSW 2.0 mph /  3.2 km/h 3.5 mph /  5.6 km/h 56 % 0.00 in /  0 mm
12:26 89.2 °F /  31.8 °C 71.5 °F /  21.9 °C 30.11 in /  1019.5 hPa WSW 1.4 mph /  2.3 km/h 3.5 mph /  5.6 km/h 56 % 0.00 in /  0 mm
12:31 89.5 °F /  31.9 °C 70.1 °F /  21.2 °C 30.11 in /  1019.5 hPa WNW 1.7 mph /  2.7 km/h 3.5 mph /  5.6 km/h 53 % 0.00 in /  0 mm
12:36 89.9 °F /  32.2 °C 72.1 °F /  22.3 °C 30.11 in /  1019.5 hPa WSW 2.2 mph /  3.5 km/h 4.6 mph /  7.4 km/h 56 % 0.00 in /  0 mm
12:41 90.1 °F /  32.3 °C 69.5 °F /  20.8 °C 30.11 in /  1019.5 hPa SW 3.8 mph /  6.1 km/h 5.8 mph /  9.3 km/h 51 % 0.00 in /  0 mm
12:46 90.1 °F /  32.3 °C 70.7 °F /  21.5 °C 30.11 in /  1019.5 hPa SW 0.6 mph /  1 km/h 2.3 mph /  3.7 km/h 53 % 0.00 in /  0 mm
12:51 90.4 °F /  32.4 °C 70.4 °F /  21.3 °C 30.10 in /  1019.2 hPa SW 2.1 mph /  3.4 km/h 4.6 mph /  7.4 km/h 52 % 0.00 in /  0 mm
12:56 90.5 °F /  32.5 °C 69.3 °F /  20.7 °C 30.10 in /  1019.2 hPa WSW 2.9 mph /  4.7 km/h 4.6 mph /  7.4 km/h 50 % 0.00 in /  0 mm
13:01 90.8 °F /  32.7 °C 71.9 °F /  22.2 °C 30.10 in /  1019.2 hPa WSW 1.4 mph /  2.3 km/h 3.0 mph /  4.8 km/h 54 % 0.00 in /  0 mm
13:06 91.0 °F /  32.8 °C 69.8 °F /  21 °C 30.09 in /  1018.8 hPa West 2.9 mph /  4.7 km/h 5.0 mph /  8 km/h 50 % 0.00 in /  0 mm
13:11 91.1 °F /  32.8 °C 69.3 °F /  20.7 °C 30.09 in /  1018.8 hPa Calm   4.6 mph /  7.4 km/h 49 % 0.00 in /  0 mm
13:16 91.3 °F /  32.9 °C 71.8 °F /  22.1 °C 30.09 in /  1018.8 hPa WSW 1.5 mph /  2.4 km/h 6.0 mph /  9.7 km/h 53 % 0.00 in /  0 mm
13:22 91.5 °F /  33.1 °C 70.8 °F /  21.6 °C 30.09 in /  1018.8 hPa North 1.0 mph /  1.6 km/h 3.5 mph /  5.6 km/h 51 % 0.00 in /  0 mm
13:27 91.7 °F /  33.2 °C 71.0 °F /  21.7 °C 30.09 in /  1018.8 hPa NNW 2.3 mph /  3.7 km/h 4.0 mph /  6.4 km/h 51 % 0.00 in /  0 mm
13:32 91.6 °F /  33.1 °C 70.9 °F /  21.6 °C 30.09 in /  1018.8 hPa North 0.2 mph /  0.3 km/h 3.5 mph /  5.6 km/h 51 % 0.00 in /  0 mm
13:37 91.6 °F /  33.1 °C 71.5 °F /  21.9 °C 30.09 in /  1018.8 hPa NNE 2.9 mph /  4.7 km/h 4.6 mph /  7.4 km/h 52 % 0.00 in /  0 mm
13:42 91.5 °F /  33.1 °C 70.8 °F /  21.6 °C 30.09 in /  1018.8 hPa ENE 2.4 mph /  3.9 km/h 4.6 mph /  7.4 km/h 51 % 0.00 in /  0 mm
13:47 91.0 °F /  32.8 °C 70.4 °F /  21.3 °C 30.09 in /  1018.8 hPa NW 2.4 mph /  3.9 km/h 3.5 mph /  5.6 km/h 51 % 0.00 in /  0 mm
13:52 90.5 °F /  32.5 °C 70.5 °F /  21.4 °C 30.09 in /  1018.8 hPa North 0.7 mph /  1.1 km/h 3.5 mph /  5.6 km/h 52 % 0.00 in /  0 mm
13:57 90.2 °F /  32.3 °C 69.6 °F /  20.9 °C 30.09 in /  1018.8 hPa NW 1.9 mph /  3.1 km/h 3.5 mph /  5.6 km/h 51 % 0.00 in /  0 mm
14:02 89.7 °F /  32.1 °C 70.3 °F /  21.3 °C 30.09 in /  1018.8 hPa North 1.0 mph /  1.6 km/h 4.6 mph /  7.4 km/h 53 % 0.00 in /  0 mm
14:07 89.2 °F /  31.8 °C 70.9 °F /  21.6 °C 30.09 in /  1018.8 hPa North 1.1 mph /  1.8 km/h 3.5 mph /  5.6 km/h 55 % 0.00 in /  0 mm
14:12 88.7 °F /  31.5 °C 70.5 °F /  21.4 °C 30.09 in /  1018.8 hPa NNW 0.2 mph /  0.3 km/h 3.5 mph /  5.6 km/h 55 % 0.00 in /  0 mm
14:17 88.3 °F /  31.3 °C 70.6 °F /  21.4 °C 30.09 in /  1018.8 hPa NW 1.0 mph /  1.6 km/h 3.5 mph /  5.6 km/h 56 % 0.00 in /  0 mm
14:22 87.9 °F /  31.1 °C 70.2 °F /  21.2 °C 30.08 in /  1018.5 hPa NW 1.1 mph /  1.8 km/h 2.3 mph /  3.7 km/h 56 % 0.00 in /  0 mm
14:26 87.7 °F /  30.9 °C 71.1 °F /  21.7 °C 30.08 in /  1018.5 hPa SW 1.7 mph /  2.7 km/h 3.5 mph /  5.6 km/h 58 % 0.00 in /  0 mm
14:31 87.5 °F /  30.8 °C 69.3 °F /  20.7 °C 30.09 in /  1018.8 hPa SW 0.1 mph /  0.2 km/h 1.2 mph /  1.9 km/h 55 % 0.00 in /  0 mm
14:36 87.2 °F /  30.7 °C 68.5 °F /  20.3 °C 30.08 in /  1018.5 hPa SW 0.9 mph /  1.4 km/h 3.5 mph /  5.6 km/h 54 % 0.00 in /  0 mm
14:41 86.8 °F /  30.4 °C 68.2 °F /  20.1 °C 30.08 in /  1018.5 hPa WSW 0.2 mph /  0.3 km/h 2.3 mph /  3.7 km/h 54 % 0.00 in /  0 mm
14:46 86.5 °F /  30.3 °C 67.3 °F /  19.6 °C 30.08 in /  1018.5 hPa SSE 1.0 mph /  1.6 km/h 3.5 mph /  5.6 km/h 53 % 0.00 in /  0 mm
14:51 86.0 °F /  30 °C 66.9 °F /  19.4 °C 30.08 in /  1018.5 hPa SSW 0.1 mph /  0.2 km/h 1.0 mph /  1.6 km/h 53 % 0.00 in /  0 mm
14:56 85.7 °F /  29.8 °C 66.6 °F /  19.2 °C 30.07 in /  1018.2 hPa SSW 0.7 mph /  1.1 km/h 3.0 mph /  4.8 km/h 53 % 0.00 in /  0 mm
15:01 85.1 °F /  29.5 °C 66.6 °F /  19.2 °C 30.07 in /  1018.2 hPa SSW 0.5 mph /  0.8 km/h 2.3 mph /  3.7 km/h 54 % 0.00 in /  0 mm
15:06 84.7 °F /  29.3 °C 67.3 °F /  19.6 °C 30.08 in /  1018.5 hPa SSW 2.1 mph /  3.4 km/h 3.5 mph /  5.6 km/h 56 % 0.00 in /  0 mm
15:07 84.7 °F /  29.3 °C 67.3 °F /  19.6 °C 30.07 in /  1018.2 hPa SE 1.3 mph /  2.1 km/h 3.5 mph /  5.6 km/h 56 % 0.00 in /  0 mm
15:12 84.4 °F /  29.1 °C 68.0 °F /  20 °C 30.08 in /  1018.5 hPa SSW 0.2 mph /  0.3 km/h 1.2 mph /  1.9 km/h 58 % 0.00 in /  0 mm
15:17 84.1 °F /  28.9 °C 68.2 °F /  20.1 °C 30.08 in /  1018.5 hPa SSW 1.4 mph /  2.3 km/h 3.5 mph /  5.6 km/h 59 % 0.00 in /  0 mm
15:22 83.9 °F /  28.8 °C 67.0 °F /  19.4 °C 30.07 in /  1018.2 hPa East 0.6 mph /  1 km/h 2.3 mph /  3.7 km/h 57 % 0.00 in /  0 mm
15:27 83.7 °F /  28.7 °C 67.4 °F /  19.7 °C 30.07 in /  1018.2 hPa SE 1.4 mph /  2.3 km/h 4.6 mph /  7.4 km/h 58 % 0.00 in /  0 mm
15:32 83.5 °F /  28.6 °C 67.7 °F /  19.8 °C 30.07 in /  1018.2 hPa WSW 0.5 mph /  0.8 km/h 3.5 mph /  5.6 km/h 59 % 0.00 in /  0 mm
15:37 83.5 °F /  28.6 °C 68.6 °F /  20.3 °C 30.07 in /  1018.2 hPa SE 0.2 mph /  0.3 km/h 1.2 mph /  1.9 km/h 61 % 0.00 in /  0 mm
15:42 83.4 °F /  28.6 °C 68.5 °F /  20.3 °C 30.07 in /  1018.2 hPa SE 0.3 mph /  0.5 km/h 1.2 mph /  1.9 km/h 61 % 0.00 in /  0 mm
15:47 83.5 °F /  28.6 °C 69.1 °F /  20.6 °C 30.07 in /  1018.2 hPa SSW 2.4 mph /  3.9 km/h 5.8 mph /  9.3 km/h 62 % 0.00 in /  0 mm
15:52 83.8 °F /  28.8 °C 68.9 °F /  20.5 °C 30.07 in /  1018.2 hPa SSW 1.9 mph /  3.1 km/h 3.5 mph /  5.6 km/h 61 % 0.00 in /  0 mm
15:57 84.2 °F /  29 °C 68.3 °F /  20.2 °C 30.07 in /  1018.2 hPa South 0.7 mph /  1.1 km/h 2.3 mph /  3.7 km/h 59 % 0.00 in /  0 mm
16:03 84.6 °F /  29.2 °C 68.7 °F /  20.4 °C 30.07 in /  1018.2 hPa SW 1.3 mph /  2.1 km/h 4.6 mph /  7.4 km/h 59 % 0.00 in /  0 mm
16:08 84.9 °F /  29.4 °C 68.0 °F /  20 °C 30.07 in /  1018.2 hPa SW 1.2 mph /  1.9 km/h 8.1 mph /  13 km/h 57 % 0.00 in /  0 mm
16:13 85.3 °F /  29.6 °C 68.3 °F /  20.2 °C 30.07 in /  1018.2 hPa South 0.4 mph /  0.6 km/h 4.6 mph /  7.4 km/h 57 % 0.00 in /  0 mm
16:18 85.4 °F /  29.7 °C 67.9 °F /  19.9 °C 30.07 in /  1018.2 hPa SSW 1.5 mph /  2.4 km/h 3.5 mph /  5.6 km/h 56 % 0.00 in /  0 mm
16:23 85.5 °F /  29.7 °C 68.5 °F /  20.3 °C 30.07 in /  1018.2 hPa SSE 1.4 mph /  2.3 km/h 3.5 mph /  5.6 km/h 57 % 0.00 in /  0 mm
16:28 85.6 °F /  29.8 °C 68.1 °F /  20.1 °C 30.07 in /  1018.2 hPa SE 0.3 mph /  0.5 km/h 3.5 mph /  5.6 km/h 56 % 0.00 in /  0 mm
16:33 85.8 °F /  29.9 °C 67.8 °F /  19.9 °C 30.07 in /  1018.2 hPa SW 2.9 mph /  4.7 km/h 6.9 mph /  11.1 km/h 55 % 0.00 in /  0 mm
16:38 85.9 °F /  29.9 °C 67.3 °F /  19.6 °C 30.07 in /  1018.2 hPa SSE 1.5 mph /  2.4 km/h 6.9 mph /  11.1 km/h 54 % 0.00 in /  0 mm
16:43 86.0 °F /  30 °C 66.9 °F /  19.4 °C 30.06 in /  1017.8 hPa SSE 0.7 mph /  1.1 km/h 2.3 mph /  3.7 km/h 53 % 0.00 in /  0 mm
16:48 86.0 °F /  30 °C 68.5 °F /  20.3 °C 30.07 in /  1018.2 hPa SSW 3.0 mph /  4.8 km/h 5.8 mph /  9.3 km/h 56 % 0.00 in /  0 mm
16:53 86.0 °F /  30 °C 67.4 °F /  19.7 °C 30.07 in /  1018.2 hPa SW 2.0 mph /  3.2 km/h 4.6 mph /  7.4 km/h 54 % 0.00 in /  0 mm
16:58 86.0 °F /  30 °C 68.0 °F /  20 °C 30.07 in /  1018.2 hPa SSW 1.1 mph /  1.8 km/h 3.5 mph /  5.6 km/h 55 % 0.00 in /  0 mm
17:03 85.8 °F /  29.9 °C 67.8 °F /  19.9 °C 30.07 in /  1018.2 hPa SE 0.9 mph /  1.4 km/h 2.3 mph /  3.7 km/h 55 % 0.00 in /  0 mm
17:08 85.5 °F /  29.7 °C 67.5 °F /  19.7 °C 30.06 in /  1017.8 hPa SSE 1.3 mph /  2.1 km/h 3.5 mph /  5.6 km/h 55 % 0.00 in /  0 mm
17:13 85.3 °F /  29.6 °C 67.8 °F /  19.9 °C 30.06 in /  1017.8 hPa South 0.2 mph /  0.3 km/h 3.5 mph /  5.6 km/h 56 % 0.00 in /  0 mm
17:18 84.9 °F /  29.4 °C 67.5 °F /  19.7 °C 30.06 in /  1017.8 hPa SE 2.6 mph /  4.2 km/h 3.5 mph /  5.6 km/h 56 % 0.00 in /  0 mm
17:24 84.6 °F /  29.2 °C 68.2 °F /  20.1 °C 30.06 in /  1017.8 hPa South 3.0 mph /  4.8 km/h 3.5 mph /  5.6 km/h 58 % 0.00 in /  0 mm
17:29 84.5 °F /  29.2 °C 68.1 °F /  20.1 °C 30.06 in /  1017.8 hPa SSW 2.5 mph /  4 km/h 8.1 mph /  13 km/h 58 % 0.00 in /  0 mm
17:34 84.3 °F /  29.1 °C 67.9 °F /  19.9 °C 30.06 in /  1017.8 hPa SSW 2.1 mph /  3.4 km/h 5.8 mph /  9.3 km/h 58 % 0.00 in /  0 mm
17:39 84.1 °F /  28.9 °C 67.7 °F /  19.8 °C 30.06 in /  1017.8 hPa West 0.6 mph /  1 km/h 3.5 mph /  5.6 km/h 58 % 0.00 in /  0 mm
17:44 83.9 °F /  28.8 °C 68.5 °F /  20.3 °C 30.06 in /  1017.8 hPa SSW 0.9 mph /  1.4 km/h 3.5 mph /  5.6 km/h 60 % 0.00 in /  0 mm
17:49 83.7 °F /  28.7 °C 67.8 °F /  19.9 °C 30.06 in /  1017.8 hPa SSW 1.2 mph /  1.9 km/h 3.5 mph /  5.6 km/h 59 % 0.00 in /  0 mm
17:54 83.5 °F /  28.6 °C 68.2 °F /  20.1 °C 30.06 in /  1017.8 hPa South 1.7 mph /  2.7 km/h 4.6 mph /  7.4 km/h 60 % 0.00 in /  0 mm
17:59 83.2 °F /  28.4 °C 67.9 °F /  19.9 °C 30.06 in /  1017.8 hPa SSW 0.9 mph /  1.4 km/h 2.3 mph /  3.7 km/h 60 % 0.00 in /  0 mm
18:04 83.0 °F /  28.3 °C 68.2 °F /  20.1 °C 30.06 in /  1017.8 hPa SSW 2.4 mph /  3.9 km/h 4.6 mph /  7.4 km/h 61 % 0.00 in /  0 mm
18:09 82.8 °F /  28.2 °C 68.0 °F /  20 °C 30.05 in /  1017.5 hPa SSW 1.5 mph /  2.4 km/h 5.8 mph /  9.3 km/h 61 % 0.00 in /  0 mm
18:14 82.5 °F /  28.1 °C 68.2 °F /  20.1 °C 30.05 in /  1017.5 hPa ESE 1.0 mph /  1.6 km/h 4.0 mph /  6.4 km/h 62 % 0.00 in /  0 mm
18:19 82.3 °F /  27.9 °C 68.4 °F /  20.2 °C 30.05 in /  1017.5 hPa SSW 2.7 mph /  4.3 km/h 5.0 mph /  8 km/h 63 % 0.00 in /  0 mm
18:24 82.1 °F /  27.8 °C 68.3 °F /  20.2 °C 30.05 in /  1017.5 hPa South 1.9 mph /  3.1 km/h 3.5 mph /  5.6 km/h 63 % 0.00 in /  0 mm
18:29 81.8 °F /  27.7 °C 68.9 °F /  20.5 °C 30.04 in /  1017.2 hPa SE 0.5 mph /  0.8 km/h 2.3 mph /  3.7 km/h 65 % 0.00 in /  0 mm
18:34 81.6 °F /  27.6 °C 68.7 °F /  20.4 °C 30.04 in /  1017.2 hPa South 1.4 mph /  2.3 km/h 4.0 mph /  6.4 km/h 65 % 0.00 in /  0 mm
18:39 81.4 °F /  27.4 °C 68.9 °F /  20.5 °C 30.04 in /  1017.2 hPa SSE 0.9 mph /  1.4 km/h 3.5 mph /  5.6 km/h 66 % 0.00 in /  0 mm
18:44 81.2 °F /  27.3 °C 69.2 °F /  20.7 °C 30.04 in /  1017.2 hPa South 2.2 mph /  3.5 km/h 5.8 mph /  9.3 km/h 67 % 0.00 in /  0 mm
18:49 80.9 °F /  27.2 °C 68.9 °F /  20.5 °C 30.04 in /  1017.2 hPa SSW 1.1 mph /  1.8 km/h 2.3 mph /  3.7 km/h 67 % 0.00 in /  0 mm
18:54 80.7 °F /  27.1 °C 69.2 °F /  20.7 °C 30.04 in /  1017.2 hPa SE 1.0 mph /  1.6 km/h 3.5 mph /  5.6 km/h 68 % 0.00 in /  0 mm
18:59 80.4 °F /  26.9 °C 68.9 °F /  20.5 °C 30.04 in /  1017.2 hPa South 1.1 mph /  1.8 km/h 3.5 mph /  5.6 km/h 68 % 0.00 in /  0 mm
19:04 80.2 °F /  26.8 °C 69.1 °F /  20.6 °C 30.04 in /  1017.2 hPa SSE 0.3 mph /  0.5 km/h 2.3 mph /  3.7 km/h 69 % 0.00 in /  0 mm
19:09 80.0 °F /  26.7 °C 69.3 °F /  20.7 °C 30.04 in /  1017.2 hPa South 0.3 mph /  0.5 km/h 1.2 mph /  1.9 km/h 70 % 0.00 in /  0 mm
19:14 79.6 °F /  26.4 °C 69.0 °F /  20.6 °C 30.04 in /  1017.2 hPa SSE 3.3 mph /  5.3 km/h 6.9 mph /  11.1 km/h 70 % 0.00 in /  0 mm
19:19 79.3 °F /  26.3 °C 69.1 °F /  20.6 °C 30.04 in /  1017.2 hPa SSW 2.3 mph /  3.7 km/h 3.5 mph /  5.6 km/h 71 % 0.00 in /  0 mm
19:24 79.1 °F /  26.2 °C 68.9 °F /  20.5 °C 30.04 in /  1017.2 hPa SW 0.4 mph /  0.6 km/h 3.5 mph /  5.6 km/h 71 % 0.00 in /  0 mm
19:29 78.9 °F /  26.1 °C 69.1 °F /  20.6 °C 30.05 in /  1017.5 hPa SSW 0.9 mph /  1.4 km/h 3.5 mph /  5.6 km/h 72 % 0.00 in /  0 mm
19:34 78.8 °F /  26 °C 69.4 °F /  20.8 °C 30.04 in /  1017.2 hPa SSW 0.7 mph /  1.1 km/h 2.0 mph /  3.2 km/h 73 % 0.00 in /  0 mm
19:39 78.6 °F /  25.9 °C 69.2 °F /  20.7 °C 30.04 in /  1017.2 hPa SSW 1.0 mph /  1.6 km/h 3.5 mph /  5.6 km/h 73 % 0.00 in /  0 mm
19:44 78.4 °F /  25.8 °C 69.4 °F /  20.8 °C 30.04 in /  1017.2 hPa SSE 0.4 mph /  0.6 km/h 2.3 mph /  3.7 km/h 74 % 0.00 in /  0 mm
19:49 78.1 °F /  25.6 °C 69.1 °F /  20.6 °C 30.04 in /  1017.2 hPa SSW 0.8 mph /  1.3 km/h 1.2 mph /  1.9 km/h 74 % 0.00 in /  0 mm
19:55 78.0 °F /  25.6 °C 69.4 °F /  20.8 °C 30.04 in /  1017.2 hPa SW 1.1 mph /  1.8 km/h 3.5 mph /  5.6 km/h 75 % 0.00 in /  0 mm
20:00 77.8 °F /  25.4 °C 69.2 °F /  20.7 °C 30.04 in /  1017.2 hPa SSW 0.4 mph /  0.6 km/h 3.5 mph /  5.6 km/h 75 % 0.00 in /  0 mm
20:05 77.6 °F /  25.3 °C 69.4 °F /  20.8 °C 30.05 in /  1017.5 hPa SSE 1.0 mph /  1.6 km/h 1.2 mph /  1.9 km/h 76 % 0.00 in /  0 mm
20:10 77.5 °F /  25.3 °C 69.3 °F /  20.7 °C 30.04 in /  1017.2 hPa SSE 0.3 mph /  0.5 km/h 3.5 mph /  5.6 km/h 76 % 0.00 in /  0 mm
20:15 77.3 °F /  25.2 °C 69.5 °F /  20.8 °C 30.04 in /  1017.2 hPa SSE 0.1 mph /  0.2 km/h 1.2 mph /  1.9 km/h 77 % 0.00 in /  0 mm
20:20 77.2 °F /  25.1 °C 69.4 °F /  20.8 °C 30.04 in /  1017.2 hPa SE 0.3 mph /  0.5 km/h 1.2 mph /  1.9 km/h 77 % 0.00 in /  0 mm
20:25 77.1 °F /  25.1 °C 69.7 °F /  20.9 °C 30.05 in /  1017.5 hPa SE 0.3 mph /  0.5 km/h 1.2 mph /  1.9 km/h 78 % 0.00 in /  0 mm
20:30 77.0 °F /  25 °C 70.0 °F /  21.1 °C 30.05 in /  1017.5 hPa SW 1.4 mph /  2.3 km/h 3.5 mph /  5.6 km/h 79 % 0.00 in /  0 mm
20:35 76.9 °F /  24.9 °C 70.3 °F /  21.3 °C 30.05 in /  1017.5 hPa SSW 0.2 mph /  0.3 km/h 1.2 mph /  1.9 km/h 80 % 0.00 in /  0 mm
20:40 76.8 °F /  24.9 °C 70.2 °F /  21.2 °C 30.05 in /  1017.5 hPa SSW 1.6 mph /  2.6 km/h 3.5 mph /  5.6 km/h 80 % 0.00 in /  0 mm
20:45 76.8 °F /  24.9 °C 70.5 °F /  21.4 °C 30.06 in /  1017.8 hPa SSW 0.6 mph /  1 km/h 3.5 mph /  5.6 km/h 81 % 0.00 in /  0 mm
20:50 76.7 °F /  24.8 °C 70.4 °F /  21.3 °C 30.06 in /  1017.8 hPa South 0.4 mph /  0.6 km/h 2.3 mph /  3.7 km/h 81 % 0.00 in /  0 mm
20:55 76.6 °F /  24.8 °C 70.7 °F /  21.5 °C 30.06 in /  1017.8 hPa South 0.7 mph /  1.1 km/h 3.5 mph /  5.6 km/h 82 % 0.00 in /  0 mm
21:01 76.5 °F /  24.7 °C 70.9 °F /  21.6 °C 30.06 in /  1017.8 hPa SSW 0.8 mph /  1.3 km/h 4.6 mph /  7.4 km/h 83 % 0.00 in /  0 mm
21:06 76.5 °F /  24.7 °C 70.9 °F /  21.6 °C 30.06 in /  1017.8 hPa SSW 1.0 mph /  1.6 km/h 5.0 mph /  8 km/h 83 % 0.00 in /  0 mm
21:11 76.4 °F /  24.7 °C 70.9 °F /  21.6 °C 30.06 in /  1017.8 hPa SW 2.0 mph /  3.2 km/h 5.0 mph /  8 km/h 83 % 0.00 in /  0 mm
21:16 76.4 °F /  24.7 °C 71.2 °F /  21.8 °C 30.05 in /  1017.5 hPa SSW 1.0 mph /  1.6 km/h 3.0 mph /  4.8 km/h 84 % 0.00 in /  0 mm
21:21 76.3 °F /  24.6 °C 71.1 °F /  21.7 °C 30.05 in /  1017.5 hPa South 1.0 mph /  1.6 km/h 4.0 mph /  6.4 km/h 84 % 0.00 in /  0 mm
21:26 76.3 °F /  24.6 °C 71.1 °F /  21.7 °C 30.06 in /  1017.8 hPa Calm   2.0 mph /  3.2 km/h 84 % 0.00 in /  0 mm
21:31 76.2 °F /  24.6 °C 71.4 °F /  21.9 °C 30.05 in /  1017.5 hPa Calm   3.0 mph /  4.8 km/h 85 % 0.00 in /  0 mm
21:36 76.2 °F /  24.6 °C 71.4 °F /  21.9 °C 30.06 in /  1017.8 hPa South 1.0 mph /  1.6 km/h 3.0 mph /  4.8 km/h 85 % 0.00 in /  0 mm
21:41 76.1 °F /  24.5 °C 71.6 °F /  22 °C 30.05 in /  1017.5 hPa Calm   3.0 mph /  4.8 km/h 86 % 0.00 in /  0 mm
21:46 76.1 °F /  24.5 °C 71.6 °F /  22 °C 30.06 in /  1017.8 hPa Calm   2.0 mph /  3.2 km/h 86 % 0.00 in /  0 mm
21:51 76.1 °F /  24.5 °C 71.6 °F /  22 °C 30.05 in /  1017.5 hPa Calm   2.0 mph /  3.2 km/h 86 % 0.00 in /  0 mm
21:56 76.0 °F /  24.4 °C 71.5 °F /  21.9 °C 30.06 in /  1017.8 hPa Calm   3.0 mph /  4.8 km/h 86 % 0.00 in /  0 mm
22:01 76.0 °F /  24.4 °C 71.5 °F /  21.9 °C 30.05 in /  1017.5 hPa SW 0.7 mph /  1.1 km/h 2.3 mph /  3.7 km/h 86 % 0.00 in /  0 mm
22:06 76.0 °F /  24.4 °C 71.5 °F /  21.9 °C 30.05 in /  1017.5 hPa SSW 2.0 mph /  3.2 km/h 6.0 mph /  9.7 km/h 86 % 0.00 in /  0 mm
22:11 75.9 °F /  24.4 °C 71.4 °F /  21.9 °C 30.05 in /  1017.5 hPa SSW 1.0 mph /  1.6 km/h 2.0 mph /  3.2 km/h 86 % 0.00 in /  0 mm
22:16 75.9 °F /  24.4 °C 71.4 °F /  21.9 °C 30.05 in /  1017.5 hPa South 1.0 mph /  1.6 km/h 3.0 mph /  4.8 km/h 86 % 0.00 in /  0 mm
22:21 75.9 °F /  24.4 °C 71.8 °F /  22.1 °C 30.04 in /  1017.2 hPa WSW 0.6 mph /  1 km/h 2.3 mph /  3.7 km/h 87 % 0.00 in /  0 mm
22:26 75.9 °F /  24.4 °C 71.7 °F /  22.1 °C 30.04 in /  1017.2 hPa Calm   3.0 mph /  4.8 km/h 87 % 0.00 in /  0 mm
22:31 75.8 °F /  24.3 °C 71.7 °F /  22.1 °C 30.04 in /  1017.2 hPa SW 0.6 mph /  1 km/h 2.3 mph /  3.7 km/h 87 % 0.00 in /  0 mm
22:36 75.8 °F /  24.3 °C 71.7 °F /  22.1 °C 30.04 in /  1017.2 hPa Calm     87 % 0.00 in /  0 mm
22:41 75.8 °F /  24.3 °C 71.7 °F /  22.1 °C 30.04 in /  1017.2 hPa SSE 0.3 mph /  0.5 km/h 1.2 mph /  1.9 km/h 87 % 0.00 in /  0 mm
22:46 75.8 °F /  24.3 °C 71.7 °F /  22.1 °C 30.04 in /  1017.2 hPa SW 0.7 mph /  1.1 km/h 2.3 mph /  3.7 km/h 87 % 0.00 in /  0 mm
22:51 75.7 °F /  24.3 °C 71.6 °F /  22 °C 30.04 in /  1017.2 hPa Calm     87 % 0.00 in /  0 mm
22:56 75.7 °F /  24.3 °C 71.6 °F /  22 °C 30.04 in /  1017.2 hPa Calm   1.2 mph /  1.9 km/h 87 % 0.00 in /  0 mm
23:01 75.7 °F /  24.3 °C 71.6 °F /  22 °C 30.04 in /  1017.2 hPa South 0.1 mph /  0.2 km/h 1.2 mph /  1.9 km/h 87 % 0.00 in /  0 mm
23:06 75.6 °F /  24.2 °C 71.5 °F /  21.9 °C 30.04 in /  1017.2 hPa South 0.3 mph /  0.5 km/h 1.2 mph /  1.9 km/h 87 % 0.00 in /  0 mm
23:12 75.5 °F /  24.2 °C 71.4 °F /  21.9 °C 30.04 in /  1017.2 hPa WSW 0.7 mph /  1.1 km/h 3.5 mph /  5.6 km/h 87 % 0.00 in /  0 mm
23:20 75.5 °F /  24.2 °C 71.4 °F /  21.9 °C 30.04 in /  1017.2 hPa SW 1.7 mph /  2.7 km/h 4.0 mph /  6.4 km/h 87 % 0.00 in /  0 mm
23:22 75.4 °F /  24.1 °C 71.3 °F /  21.8 °C 30.04 in /  1017.2 hPa SW 2.6 mph /  4.2 km/h 3.0 mph /  4.8 km/h 87 % 0.00 in /  0 mm
23:24 75.4 °F /  24.1 °C 71.3 °F /  21.8 °C 30.04 in /  1017.2 hPa SW 0.2 mph /  0.3 km/h 3.5 mph /  5.6 km/h 87 % 0.00 in /  0 mm
23:26 75.4 °F /  24.1 °C 71.3 °F /  21.8 °C 30.04 in /  1017.2 hPa SE 0.3 mph /  0.5 km/h 3.5 mph /  5.6 km/h 87 % 0.00 in /  0 mm
23:27 75.4 °F /  24.1 °C 71.3 °F /  21.8 °C 30.04 in /  1017.2 hPa South 0.7 mph /  1.1 km/h 2.3 mph /  3.7 km/h 87 % 0.00 in /  0 mm
23:32 75.3 °F /  24.1 °C 71.5 °F /  21.9 °C 30.04 in /  1017.2 hPa SSW 1.0 mph /  1.6 km/h 3.5 mph /  5.6 km/h 88 % 0.00 in /  0 mm
23:37 75.3 °F /  24.1 °C 71.5 °F /  21.9 °C 30.03 in /  1016.8 hPa SSW 2.6 mph /  4.2 km/h 5.0 mph /  8 km/h 88 % 0.00 in /  0 mm
23:42 75.2 °F /  24 °C 71.4 °F /  21.9 °C 30.03 in /  1016.8 hPa SW 0.5 mph /  0.8 km/h 2.3 mph /  3.7 km/h 88 % 0.00 in /  0 mm
23:47 75.2 °F /  24 °C 71.4 °F /  21.9 °C 30.03 in /  1016.8 hPa SW 1.5 mph /  2.4 km/h 3.5 mph /  5.6 km/h 88 % 0.00 in /  0 mm
23:52 75.1 °F /  23.9 °C 71.3 °F /  21.8 °C 30.03 in /  1016.8 hPa SW 0.1 mph /  0.2 km/h 1.2 mph /  1.9 km/h 88 % 0.00 in /  0 mm
23:57 75.1 °F /  23.9 °C 71.3 °F /  21.8 °C 30.03 in /  1016.8 hPa SW 0.2 mph /  0.3 km/h 2.3 mph /  3.7 km/h 88 % 0.00 in /  0 mm
Crab Meadow Weather
Compliments of Weather Underground - 3 mb

Script developed by  Jim McMurry - jmcmurry@mwt.net Adapted for the template by  Wim van der Kuil - Leuven-Template.eu

Hurricanes: In one day a hurricane can release enough energy to supply all of the nation's electrical needs for about six months.